createdAt,value
2019-05-21T00:01:33.968Z,9.90
2019-05-21T00:04:03.308Z,9.70
2019-05-21T00:06:32.815Z,9.77
2019-05-21T00:09:03.440Z,9.70
2019-05-21T00:11:34.546Z,9.13
2019-05-21T00:14:03.908Z,9.87
2019-05-21T00:16:33.237Z,9.67
2019-05-21T00:19:02.588Z,9.63
2019-05-21T00:21:32.875Z,9.90
2019-05-21T00:24:02.248Z,9.93
2019-05-21T00:26:31.565Z,9.40
2019-05-21T00:29:36.432Z,9.70
2019-05-21T00:32:41.521Z,9.53
2019-05-21T00:35:49.712Z,9.87
2019-05-21T00:38:54.668Z,9.70
2019-05-21T00:41:59.772Z,9.57
2019-05-21T00:44:30.584Z,9.60
2019-05-21T00:47:00.069Z,9.00
2019-05-21T00:49:29.453Z,9.33
2019-05-21T00:52:07.046Z,8.77
2019-05-21T00:54:29.858Z,8.40
2019-05-21T00:56:59.199Z,9.37
2019-05-21T00:59:28.541Z,9.00
2019-05-21T01:01:57.882Z,9.20
2019-05-21T01:04:27.312Z,9.60
2019-05-21T01:06:56.668Z,10.00
2019-05-21T01:09:26.024Z,10.73
2019-05-21T01:11:55.342Z,9.93
2019-05-21T01:14:24.822Z,9.77
2019-05-21T01:16:54.228Z,10.00
2019-05-21T01:19:23.522Z,10.10
2019-05-21T01:21:52.842Z,9.07
2019-05-21T01:24:22.208Z,9.13
2019-05-21T01:26:51.569Z,9.57
2019-05-21T01:29:20.895Z,9.90
2019-05-21T01:31:50.262Z,10.83
2019-05-21T01:34:19.637Z,11.83
2019-05-21T01:36:48.987Z,12.20
2019-05-21T01:39:18.422Z,11.87
2019-05-21T01:41:48.141Z,12.30
2019-05-21T01:44:17.513Z,12.20
2019-05-21T01:46:46.893Z,13.07
2019-05-21T01:49:16.254Z,13.03
2019-05-21T01:51:45.595Z,12.47
2019-05-21T01:54:15.106Z,14.00
2019-05-21T01:56:45.621Z,12.30
2019-05-21T01:59:14.966Z,12.37
2019-05-21T02:01:45.464Z,12.57
2019-05-21T02:04:14.808Z,12.87
2019-05-21T02:06:44.453Z,12.37
2019-05-21T02:09:13.969Z,13.03
2019-05-21T02:11:43.305Z,12.93
2019-05-21T02:14:12.686Z,12.73
2019-05-21T02:16:42.059Z,12.27
2019-05-21T02:19:11.390Z,11.70
2019-05-21T02:21:40.794Z,11.27
2019-05-21T02:24:10.175Z,12.53
2019-05-21T02:26:39.539Z,11.13
2019-05-21T02:29:08.877Z,12.17
2019-05-21T02:31:38.218Z,12.33
2019-05-21T02:34:07.574Z,11.70
2019-05-21T02:36:36.916Z,11.27
2019-05-21T02:39:07.575Z,11.53
2019-05-21T02:41:36.959Z,11.20
2019-05-21T02:44:06.384Z,11.03
2019-05-21T02:46:36.515Z,10.70
2019-05-21T02:49:05.881Z,10.57
2019-05-21T02:51:35.233Z,9.07
2019-05-21T02:54:04.579Z,9.97
2019-05-21T02:56:33.940Z,9.57
2019-05-21T02:59:03.283Z,9.50
2019-05-21T03:01:41.453Z,8.67
2019-05-21T03:04:10.815Z,8.97
2019-05-21T03:06:40.167Z,8.20
2019-05-21T03:09:09.517Z,8.63
2019-05-21T03:11:39.019Z,8.70
2019-05-21T03:14:08.356Z,8.10
2019-05-21T03:16:37.677Z,8.03
2019-05-21T03:19:07.023Z,7.67
2019-05-21T03:21:36.343Z,8.80
2019-05-21T03:24:05.725Z,8.47
2019-05-21T03:26:35.090Z,9.00
2019-05-21T03:29:04.449Z,8.83
2019-05-21T03:31:33.822Z,9.00
2019-05-21T03:34:03.150Z,8.63
2019-05-21T03:36:34.276Z,10.27
2019-05-21T03:39:04.959Z,8.47
2019-05-21T03:41:34.361Z,8.47
2019-05-21T03:44:03.696Z,8.07
2019-05-21T03:46:33.240Z,8.13
2019-05-21T03:49:02.586Z,8.10
2019-05-21T03:51:31.987Z,6.97
2019-05-21T03:54:01.389Z,7.47
2019-05-21T03:56:30.758Z,7.20
2019-05-21T03:59:00.100Z,6.97
2019-05-21T04:01:29.417Z,6.93
2019-05-21T04:03:58.784Z,6.77
2019-05-21T04:06:29.020Z,6.90
2019-05-21T04:08:58.512Z,6.80
2019-05-21T04:11:27.854Z,6.90
2019-05-21T04:13:57.190Z,7.30
2019-05-21T04:16:45.465Z,6.57
2019-05-21T04:19:18.691Z,6.47
2019-05-21T04:21:48.030Z,6.67
2019-05-21T04:24:17.376Z,7.00
2019-05-21T04:26:46.771Z,7.03
2019-05-21T04:29:16.188Z,7.37
2019-05-21T04:31:45.537Z,6.80
2019-05-21T04:34:15.327Z,7.40
2019-05-21T04:36:44.832Z,6.27
2019-05-21T04:39:14.233Z,6.80
2019-05-21T04:41:43.638Z,6.37
2019-05-21T04:44:13.000Z,6.90
2019-05-21T04:46:42.317Z,6.57
2019-05-21T04:49:11.774Z,7.03
2019-05-21T04:51:41.417Z,6.13
2019-05-21T04:54:10.781Z,6.30
2019-05-21T04:56:40.182Z,12.70
2019-05-21T04:59:09.552Z,7.37
2019-05-21T05:01:38.876Z,9.53
2019-05-21T05:04:08.659Z,7.97
2019-05-21T05:06:38.042Z,6.10
2019-05-21T05:09:07.665Z,6.40
2019-05-21T05:11:37.075Z,9.03
2019-05-21T05:14:06.517Z,6.80
2019-05-21T05:16:35.963Z,7.13
2019-05-21T05:19:05.391Z,6.73
2019-05-21T05:21:34.793Z,8.67
2019-05-21T05:24:04.125Z,7.07
2019-05-21T05:26:33.480Z,5.77
2019-05-21T05:29:02.887Z,5.87
2019-05-21T05:31:32.253Z,5.90
2019-05-21T05:34:01.691Z,5.70
2019-05-21T05:36:31.099Z,5.87
2019-05-21T05:39:00.470Z,6.10
2019-05-21T05:41:29.801Z,5.63
2019-05-21T05:43:59.228Z,5.93
2019-05-21T05:46:28.603Z,8.40
2019-05-21T05:49:06.348Z,6.70
2019-05-21T05:51:35.701Z,5.67
2019-05-21T05:54:07.722Z,6.30
2019-05-21T05:56:36.131Z,6.90
2019-05-21T05:59:05.626Z,6.27
2019-05-21T06:01:35.113Z,6.07
2019-05-21T06:04:04.591Z,5.43
2019-05-21T06:06:33.964Z,5.93
2019-05-21T06:09:04.808Z,5.63
2019-05-21T06:11:34.175Z,6.03
2019-05-21T06:14:03.537Z,4.57
2019-05-21T06:16:32.880Z,4.80
2019-05-21T06:19:04.763Z,5.40
2019-05-21T06:21:34.108Z,4.17
2019-05-21T06:24:03.443Z,3.80
2019-05-21T06:26:32.786Z,4.47
2019-05-21T06:29:02.179Z,4.90
2019-05-21T06:31:31.601Z,5.20
2019-05-21T06:34:01.026Z,5.00
2019-05-21T06:36:30.412Z,4.83
2019-05-21T06:38:59.804Z,4.97
2019-05-21T06:41:29.226Z,4.17
2019-05-21T06:43:58.747Z,4.60
2019-05-21T06:46:28.160Z,4.43
2019-05-21T06:48:58.042Z,4.03
2019-05-21T06:51:27.471Z,3.80
2019-05-21T06:53:56.811Z,3.67
2019-05-21T06:56:26.168Z,2.63
2019-05-21T06:58:57.059Z,3.10
2019-05-21T07:01:28.718Z,2.50
2019-05-21T07:03:57.564Z,2.10
2019-05-21T07:06:26.919Z,2.47
2019-05-21T07:08:56.309Z,2.30
2019-05-21T07:11:25.732Z,2.97
2019-05-21T07:13:55.140Z,3.37
2019-05-21T07:16:24.522Z,2.43
2019-05-21T07:18:53.914Z,2.80
2019-05-21T07:21:23.332Z,5.30
2019-05-21T07:23:52.648Z,3.23
2019-05-21T07:26:22.003Z,3.43
2019-05-21T07:28:52.922Z,4.60
2019-05-21T07:31:22.585Z,3.60
2019-05-21T07:33:52.931Z,3.63
2019-05-21T07:36:22.281Z,3.50
2019-05-21T07:38:53.863Z,3.90
2019-05-21T07:41:22.758Z,3.70
2019-05-21T07:43:52.215Z,3.87
2019-05-21T07:46:21.601Z,3.07
2019-05-21T07:48:50.968Z,3.00
2019-05-21T07:51:20.375Z,3.27
2019-05-21T07:53:49.738Z,3.10
2019-05-21T07:56:19.109Z,3.40
2019-05-21T07:58:48.500Z,2.57
2019-05-21T08:01:17.882Z,2.50
2019-05-21T08:03:47.202Z,2.47
2019-05-21T08:06:16.603Z,2.90
2019-05-21T08:08:45.986Z,2.30
2019-05-21T08:11:15.447Z,2.30
2019-05-21T08:13:44.835Z,2.83
2019-05-21T08:16:14.293Z,2.37
2019-05-21T08:18:43.665Z,2.33
2019-05-21T08:21:13.040Z,2.40
2019-05-21T08:23:42.414Z,18.37
2019-05-21T08:26:11.790Z,3.73
2019-05-21T08:28:41.173Z,2.73
2019-05-21T08:31:10.587Z,2.90
2019-05-21T08:33:40.504Z,2.70
2019-05-21T08:36:09.918Z,2.00
2019-05-21T08:38:39.398Z,2.50
2019-05-21T08:41:08.820Z,2.00
2019-05-21T08:43:38.204Z,2.23
2019-05-21T08:46:07.683Z,2.47
2019-05-21T08:48:37.054Z,2.07
2019-05-21T08:51:06.559Z,2.50
2019-05-21T08:53:35.891Z,1.90
2019-05-21T08:56:05.338Z,1.90
2019-05-21T08:58:34.743Z,3.20
2019-05-21T09:01:04.220Z,2.40
2019-05-21T09:03:33.515Z,2.63
2019-05-21T09:06:02.865Z,3.00
2019-05-21T09:08:32.249Z,2.70
2019-05-21T09:11:01.655Z,3.00
2019-05-21T09:13:31.458Z,2.40
2019-05-21T09:16:00.866Z,2.60
2019-05-21T09:18:30.225Z,3.13
2019-05-21T09:20:59.563Z,2.83
2019-05-21T09:23:29.002Z,2.70
2019-05-21T09:25:58.468Z,2.80
2019-05-21T09:28:27.806Z,2.80
2019-05-21T09:30:57.154Z,2.73
2019-05-21T09:33:26.546Z,2.73
2019-05-21T09:35:55.985Z,2.33
2019-05-21T09:38:25.324Z,3.37
2019-05-21T09:40:54.784Z,2.40
2019-05-21T09:43:24.111Z,2.53
2019-05-21T09:45:53.454Z,1.60
2019-05-21T09:48:22.773Z,2.00
2019-05-21T09:50:52.133Z,1.93
2019-05-21T09:53:21.492Z,1.70
2019-05-21T09:55:50.905Z,1.40
2019-05-21T09:58:28.432Z,1.63
2019-05-21T10:01:05.707Z,1.40
2019-05-21T10:03:37.943Z,1.50
2019-05-21T10:06:07.296Z,2.23
2019-05-21T10:08:37.292Z,1.80
2019-05-21T10:11:06.747Z,2.00
2019-05-21T10:13:36.152Z,1.60
2019-05-21T10:16:05.519Z,1.70
2019-05-21T10:18:34.850Z,1.60
2019-05-21T10:21:04.179Z,1.77
2019-05-21T10:23:36.593Z,1.50
2019-05-21T10:26:06.059Z,1.32
2019-05-21T10:28:35.399Z,1.40
2019-05-21T10:31:04.753Z,1.60
2019-05-21T10:33:34.112Z,1.40
2019-05-21T10:36:03.502Z,1.20
2019-05-21T10:38:32.869Z,1.00
2019-05-21T10:41:02.368Z,1.17
2019-05-21T10:43:31.830Z,1.00
2019-05-21T10:46:01.175Z,1.00
2019-05-21T10:48:30.521Z,1.13
2019-05-21T10:50:59.852Z,1.07
2019-05-21T10:53:29.198Z,1.07
2019-05-21T10:55:58.556Z,1.00
2019-05-21T10:58:27.894Z,0.98
2019-05-21T11:01:06.006Z,0.98
2019-05-21T11:04:11.977Z,1.13
2019-05-21T11:06:41.637Z,1.00
2019-05-21T11:09:17.472Z,0.80
2019-05-21T11:11:46.861Z,1.32
2019-05-21T11:14:21.152Z,1.17
2019-05-21T11:16:50.592Z,1.67
2019-05-21T11:19:19.944Z,1.40
2019-05-21T11:21:49.243Z,1.30
2019-05-21T11:24:18.609Z,1.27
2019-05-21T11:26:48.065Z,0.95
2019-05-21T11:29:17.376Z,1.65
2019-05-21T11:31:56.526Z,1.30
2019-05-21T11:34:17.842Z,0.90
2019-05-21T11:36:47.277Z,1.02
2019-05-21T11:39:16.601Z,1.22
2019-05-21T11:41:46.038Z,1.10
2019-05-21T11:44:15.374Z,1.10
2019-05-21T11:46:44.765Z,1.27
2019-05-21T11:49:14.117Z,0.80
2019-05-21T11:51:43.433Z,1.00
2019-05-21T11:54:12.812Z,1.30
2019-05-21T11:56:42.196Z,1.10
2019-05-21T11:59:11.621Z,1.20
2019-05-21T12:01:40.991Z,1.10
2019-05-21T12:04:10.347Z,1.17
2019-05-21T12:06:39.785Z,1.20
2019-05-21T12:09:09.695Z,0.80
2019-05-21T12:11:39.093Z,1.37
2019-05-21T12:14:08.450Z,1.17
2019-05-21T12:16:37.799Z,1.20
2019-05-21T12:19:08.217Z,1.50
2019-05-21T12:21:37.999Z,1.00
2019-05-21T12:24:07.323Z,1.50
2019-05-21T12:26:37.000Z,1.00
2019-05-21T12:29:06.408Z,1.12
2019-05-21T12:31:35.727Z,1.40
2019-05-21T12:34:05.345Z,1.00
2019-05-21T12:36:34.754Z,1.37
2019-05-21T12:39:14.223Z,1.50
2019-05-21T12:41:36.626Z,1.25
2019-05-21T12:44:05.950Z,0.98
2019-05-21T12:46:35.793Z,0.90
2019-05-21T12:49:05.176Z,1.20
2019-05-21T12:51:34.540Z,1.67
2019-05-21T12:54:03.908Z,1.32
2019-05-21T12:56:33.295Z,1.98
2019-05-21T12:59:02.795Z,1.80
2019-05-21T13:01:32.242Z,1.62
2019-05-21T13:04:01.579Z,1.60
2019-05-21T13:06:30.953Z,1.27
2019-05-21T13:09:00.629Z,1.50
2019-05-21T13:11:30.807Z,1.30
2019-05-21T13:14:00.159Z,1.20
2019-05-21T13:16:29.576Z,1.63
2019-05-21T13:18:59.000Z,1.30
2019-05-21T13:21:28.387Z,1.27
2019-05-21T13:23:57.729Z,1.40
2019-05-21T13:26:27.076Z,1.67
2019-05-21T13:28:56.417Z,3.47
2019-05-21T13:31:25.734Z,1.30
2019-05-21T13:33:55.081Z,1.50
2019-05-21T13:36:24.434Z,1.27
2019-05-21T13:38:53.773Z,1.23
2019-05-21T13:41:23.130Z,1.40
2019-05-21T13:43:52.530Z,1.10
2019-05-21T13:46:22.120Z,1.50
2019-05-21T13:48:51.510Z,1.30
2019-05-21T13:51:20.842Z,1.30
2019-05-21T13:53:50.174Z,1.27
2019-05-21T13:56:19.567Z,1.20
2019-05-21T13:58:48.932Z,1.20
2019-05-21T14:01:19.757Z,1.30
2019-05-21T14:03:49.237Z,1.53
2019-05-21T14:06:20.430Z,1.50
2019-05-21T14:08:49.662Z,1.37
2019-05-21T14:11:18.993Z,1.23
2019-05-21T14:13:48.364Z,1.53
2019-05-21T14:16:17.692Z,1.40
2019-05-21T14:18:47.059Z,1.67
2019-05-21T14:21:16.398Z,1.10
2019-05-21T14:23:45.779Z,0.90
2019-05-21T14:26:15.264Z,1.30
2019-05-21T14:28:44.698Z,1.20
2019-05-21T14:31:14.054Z,1.27
2019-05-21T14:33:46.647Z,1.50
2019-05-21T14:36:14.514Z,1.50
2019-05-21T14:38:43.866Z,1.30
2019-05-21T14:41:13.228Z,1.60
2019-05-21T14:43:42.557Z,1.60
2019-05-21T14:46:11.979Z,1.47
2019-05-21T14:48:41.333Z,1.45
2019-05-21T14:51:13.391Z,2.05
2019-05-21T14:53:41.790Z,1.60
2019-05-21T14:56:11.177Z,1.32
2019-05-21T14:58:40.574Z,1.30
2019-05-21T15:01:10.050Z,1.37
2019-05-21T15:03:39.377Z,1.47
2019-05-21T15:06:08.782Z,1.40
2019-05-21T15:08:38.174Z,1.60
2019-05-21T15:11:07.541Z,1.30
2019-05-21T15:13:36.909Z,1.30
2019-05-21T15:16:06.324Z,1.32
2019-05-21T15:18:35.716Z,0.68
2019-05-21T15:21:29.851Z,0.95
2019-05-21T15:23:59.338Z,1.20
2019-05-21T15:26:28.691Z,1.40
2019-05-21T15:28:58.087Z,1.00
2019-05-21T15:31:27.418Z,1.10
2019-05-21T15:33:56.791Z,1.35
2019-05-21T15:36:26.179Z,1.47
2019-05-21T15:38:55.549Z,1.35
2019-05-21T15:41:24.921Z,1.47
2019-05-21T15:43:54.314Z,1.30
2019-05-21T15:46:23.746Z,1.30
2019-05-21T15:48:53.113Z,1.30
2019-05-21T15:51:22.524Z,1.10
2019-05-21T15:53:51.907Z,1.27
2019-05-21T15:56:21.285Z,1.10
2019-05-21T15:58:50.663Z,1.13
2019-05-21T16:01:20.080Z,1.37
2019-05-21T16:03:49.454Z,1.20
2019-05-21T16:06:18.915Z,1.37
2019-05-21T16:08:48.595Z,1.33
2019-05-21T16:11:28.092Z,1.10
2019-05-21T16:13:49.105Z,1.27
2019-05-21T16:16:18.525Z,1.07
2019-05-21T16:18:47.866Z,1.30
2019-05-21T16:21:17.516Z,1.30
2019-05-21T16:23:46.914Z,1.30
2019-05-21T16:26:16.356Z,1.53
2019-05-21T16:28:45.690Z,1.90
2019-05-21T16:31:15.090Z,1.40
2019-05-21T16:33:44.431Z,1.50
2019-05-21T16:36:13.990Z,1.60
2019-05-21T16:38:43.403Z,1.80
2019-05-21T16:41:12.767Z,1.87
2019-05-21T16:43:42.113Z,1.87
2019-05-21T16:46:11.623Z,1.97
2019-05-21T16:48:40.963Z,1.70
2019-05-21T16:51:10.345Z,2.17
2019-05-21T16:53:39.709Z,2.03
2019-05-21T16:56:09.246Z,1.70
2019-05-21T16:58:38.602Z,1.80
2019-05-21T17:01:08.028Z,1.80
2019-05-21T17:03:37.435Z,2.10
2019-05-21T17:06:07.121Z,1.80
2019-05-21T17:08:36.672Z,2.00
2019-05-21T17:11:06.115Z,1.90
2019-05-21T17:13:35.554Z,2.00
2019-05-21T17:16:05.051Z,2.10
2019-05-21T17:18:34.457Z,2.00
2019-05-21T17:21:03.858Z,1.90
2019-05-21T17:23:34.280Z,2.40
2019-05-21T17:26:03.686Z,1.90
2019-05-21T17:28:33.174Z,2.57
2019-05-21T17:31:02.619Z,2.10
2019-05-21T17:33:32.141Z,2.40
2019-05-21T17:36:01.501Z,2.30
2019-05-21T17:38:31.115Z,2.43
2019-05-21T17:41:00.583Z,2.60
2019-05-21T17:43:29.948Z,2.23
2019-05-21T17:45:59.577Z,2.37
2019-05-21T17:48:28.954Z,2.17
2019-05-21T17:50:58.650Z,1.83
2019-05-21T17:53:28.172Z,2.13
2019-05-21T17:55:57.493Z,2.70
2019-05-21T17:58:27.035Z,2.63
2019-05-21T18:01:00.188Z,2.10
2019-05-21T18:03:29.759Z,2.23
2019-05-21T18:05:59.813Z,2.53
2019-05-21T18:08:30.172Z,2.07
2019-05-21T18:11:00.660Z,2.90
2019-05-21T18:13:31.107Z,2.43
2019-05-21T18:16:00.480Z,3.13
2019-05-21T18:18:30.306Z,3.23
2019-05-21T18:20:59.875Z,3.43
2019-05-21T18:23:29.291Z,3.63
2019-05-21T18:25:59.001Z,2.30
2019-05-21T18:28:28.537Z,3.50
2019-05-21T18:30:57.989Z,3.30
2019-05-21T18:33:27.349Z,3.60
2019-05-21T18:35:56.877Z,3.30
2019-05-21T18:38:26.613Z,3.43
2019-05-21T18:40:56.000Z,5.70
2019-05-21T18:43:25.618Z,4.77
2019-05-21T18:45:55.232Z,4.97
2019-05-21T18:48:24.703Z,4.80
2019-05-21T18:50:54.030Z,5.17
2019-05-21T18:53:23.381Z,4.00
2019-05-21T18:55:52.773Z,4.00
2019-05-21T18:58:22.213Z,3.97
2019-05-21T19:00:51.560Z,4.67
2019-05-21T19:03:28.015Z,4.77
2019-05-21T19:05:52.307Z,3.40
2019-05-21T19:08:21.831Z,3.67
2019-05-21T19:10:51.357Z,4.60
2019-05-21T19:13:20.697Z,5.23
2019-05-21T19:15:50.071Z,3.30
2019-05-21T19:18:19.641Z,2.90
2019-05-21T19:20:50.052Z,3.37
2019-05-21T19:23:19.628Z,2.97
2019-05-21T19:25:49.058Z,2.90
2019-05-21T19:28:18.527Z,3.17
2019-05-21T19:30:47.898Z,2.50
2019-05-21T19:33:17.347Z,2.90
2019-05-21T19:35:46.685Z,3.03
2019-05-21T19:38:16.980Z,3.60
2019-05-21T19:40:46.941Z,2.90
2019-05-21T19:43:16.500Z,2.90
2019-05-21T19:45:46.129Z,2.60
2019-05-21T19:48:15.578Z,2.57
2019-05-21T19:50:45.176Z,2.73
2019-05-21T19:53:14.791Z,2.80
2019-05-21T19:55:44.551Z,2.80
2019-05-21T19:58:14.137Z,3.03
2019-05-21T20:00:51.725Z,2.97
2019-05-21T20:03:21.502Z,3.00
2019-05-21T20:05:51.007Z,2.87
2019-05-21T20:08:20.505Z,2.97
2019-05-21T20:10:49.970Z,2.90
2019-05-21T20:13:31.801Z,3.00
2019-05-21T20:15:50.785Z,2.90
2019-05-21T20:18:20.323Z,3.23
2019-05-21T20:20:50.828Z,2.97
2019-05-21T20:23:21.412Z,2.80
2019-05-21T20:25:56.462Z,3.00
2019-05-21T20:28:22.655Z,3.00
2019-05-21T20:30:52.082Z,2.80
2019-05-21T20:33:21.510Z,2.30
2019-05-21T20:35:52.769Z,3.00
2019-05-21T20:38:23.618Z,8.63
2019-05-21T20:40:53.666Z,3.03
2019-05-21T20:43:23.278Z,3.20
2019-05-21T20:45:59.589Z,2.87
2019-05-21T20:48:32.200Z,2.90
2019-05-21T20:51:02.378Z,2.90
2019-05-21T20:53:32.697Z,2.77
2019-05-21T20:56:02.690Z,2.77
2019-05-21T20:58:32.367Z,3.20
2019-05-21T21:01:02.202Z,2.67
2019-05-21T21:03:32.768Z,2.50
2019-05-21T21:06:03.349Z,2.80
2019-05-21T21:08:36.678Z,2.30
2019-05-21T21:11:07.934Z,2.30
2019-05-21T21:13:37.679Z,2.50
2019-05-21T21:16:07.418Z,2.43
2019-05-21T21:18:36.817Z,2.47
2019-05-21T21:21:06.606Z,2.63
2019-05-21T21:23:37.208Z,2.30
2019-05-21T21:26:06.695Z,2.30
2019-05-21T21:28:36.397Z,2.60
2019-05-21T21:31:06.730Z,2.53
2019-05-21T21:33:36.259Z,2.20
2019-05-21T21:36:05.824Z,2.60
2019-05-21T21:38:37.542Z,2.57
2019-05-21T21:41:08.351Z,2.20
2019-05-21T21:43:37.694Z,2.50
2019-05-21T21:46:07.572Z,2.63
2019-05-21T21:48:37.389Z,2.20
2019-05-21T21:51:08.062Z,2.53
2019-05-21T21:53:39.310Z,2.30
2019-05-21T21:56:08.852Z,2.07
2019-05-21T21:58:38.274Z,2.30
2019-05-21T22:01:52.332Z,2.27
2019-05-21T22:04:25.494Z,2.50
2019-05-21T22:06:56.176Z,2.50
2019-05-21T22:09:34.985Z,2.23
2019-05-21T22:12:06.153Z,2.17
2019-05-21T22:14:49.778Z,2.03
2019-05-21T22:17:09.748Z,2.23
2019-05-21T22:19:40.111Z,2.37
2019-05-21T22:22:10.712Z,2.20
2019-05-21T22:24:40.236Z,2.47
2019-05-21T22:27:09.820Z,2.17
2019-05-21T22:29:39.531Z,2.50
2019-05-21T22:32:08.902Z,2.70
2019-05-21T22:34:38.404Z,2.20
2019-05-21T22:37:09.629Z,2.30
2019-05-21T22:39:40.750Z,2.20
2019-05-21T22:42:11.123Z,2.30
2019-05-21T22:44:40.637Z,2.30
2019-05-21T22:47:10.212Z,2.50
2019-05-21T22:49:39.681Z,2.00
2019-05-21T22:52:09.086Z,2.50
2019-05-21T22:54:38.617Z,2.33
2019-05-21T22:57:08.088Z,2.73
2019-05-21T22:59:37.456Z,2.13
2019-05-21T23:02:10.210Z,2.50
2019-05-21T23:04:39.647Z,2.03
2019-05-21T23:07:09.113Z,2.10
2019-05-21T23:09:38.505Z,1.90
2019-05-21T23:12:08.707Z,2.17
2019-05-21T23:14:38.165Z,2.00
2019-05-21T23:17:08.948Z,1.70
2019-05-21T23:19:39.052Z,1.80
2019-05-21T23:22:11.623Z,1.63
2019-05-21T23:24:41.576Z,1.70
2019-05-21T23:27:12.300Z,1.90
2019-05-21T23:29:42.382Z,2.10
2019-05-21T23:32:12.942Z,2.00
2019-05-21T23:34:44.071Z,1.77
2019-05-21T23:37:19.717Z,1.80
2019-05-21T23:39:52.080Z,2.13
2019-05-21T23:42:29.382Z,2.10
2019-05-21T23:44:52.678Z,2.27
2019-05-21T23:47:22.216Z,2.20
2019-05-21T23:49:51.681Z,2.10
2019-05-21T23:52:21.303Z,2.23
2019-05-21T23:54:50.706Z,2.13
2019-05-21T23:57:27.310Z,2.20
2019-05-21T23:59:57.096Z,2.23
